createdAt,value
2023-07-27T00:00:31.088Z,80.67
2023-07-27T00:01:03.461Z,80.56
2023-07-27T00:01:38.243Z,81.02
2023-07-27T00:02:10.552Z,81.14
2023-07-27T00:02:42.841Z,80.74
2023-07-27T00:03:15.072Z,81.13
2023-07-27T00:03:49.953Z,80.99
2023-07-27T00:04:24.104Z,81.02
2023-07-27T00:04:56.298Z,81.40
2023-07-27T00:05:31.205Z,81.48
2023-07-27T00:06:03.485Z,80.97
2023-07-27T00:06:35.979Z,80.92
2023-07-27T00:07:10.949Z,81.20
2023-07-27T00:07:43.127Z,80.87
2023-07-27T00:08:15.427Z,81.27
2023-07-27T00:08:50.329Z,81.27
2023-07-27T00:09:22.527Z,81.09
2023-07-27T00:09:54.967Z,81.11
2023-07-27T00:10:29.320Z,81.34
2023-07-27T00:11:01.739Z,81.61
2023-07-27T00:11:36.825Z,81.34
2023-07-27T00:12:09.666Z,81.37
2023-07-27T00:12:42.109Z,81.62
2023-07-27T00:13:18.178Z,81.79
2023-07-27T00:13:53.420Z,81.55
2023-07-27T00:14:25.870Z,81.50
2023-07-27T00:14:58.290Z,81.23
2023-07-27T00:15:33.398Z,81.26
2023-07-27T00:16:06.838Z,81.66
2023-07-27T00:16:39.315Z,81.76
2023-07-27T00:17:14.303Z,81.49
2023-07-27T00:17:46.815Z,81.53
2023-07-27T00:18:19.345Z,81.59
2023-07-27T00:18:51.718Z,81.65
2023-07-27T00:19:26.852Z,81.60
2023-07-27T00:19:59.385Z,81.59
2023-07-27T00:20:31.675Z,81.51
2023-07-27T00:21:04.277Z,81.29
2023-07-27T00:21:39.160Z,81.33
2023-07-27T00:22:11.779Z,81.39
2023-07-27T00:22:44.381Z,81.35
2023-07-27T00:23:16.773Z,81.44
2023-07-27T00:23:49.252Z,81.24
2023-07-27T00:24:24.316Z,81.33
2023-07-27T00:24:56.866Z,81.33
2023-07-27T00:25:29.288Z,81.52
2023-07-27T00:26:01.498Z,81.58
2023-07-27T00:26:36.619Z,81.97
2023-07-27T00:27:08.989Z,82.01
2023-07-27T00:27:41.233Z,81.92
2023-07-27T00:28:13.633Z,82.24
2023-07-27T00:28:48.573Z,82.69
2023-07-27T00:29:23.572Z,82.77
2023-07-27T00:29:56.025Z,82.70
2023-07-27T00:30:28.284Z,82.64
2023-07-27T00:31:03.152Z,83.10
2023-07-27T00:31:35.446Z,83.04
2023-07-27T00:32:08.529Z,83.02
2023-07-27T00:32:43.837Z,82.80
2023-07-27T00:33:16.148Z,82.89
2023-07-27T00:33:49.262Z,83.28
2023-07-27T00:34:21.581Z,82.83
2023-07-27T00:34:57.974Z,83.07
2023-07-27T00:35:30.472Z,82.96
2023-07-27T00:36:02.781Z,82.88
2023-07-27T00:36:37.607Z,82.95
2023-07-27T00:37:09.900Z,82.69
2023-07-27T00:37:42.742Z,82.80
2023-07-27T00:38:14.949Z,82.83
2023-07-27T00:38:52.517Z,82.92
2023-07-27T00:39:24.814Z,83.22
2023-07-27T00:39:57.060Z,83.38
2023-07-27T00:40:31.994Z,83.02
2023-07-27T00:41:04.447Z,83.50
2023-07-27T00:41:36.726Z,83.07
2023-07-27T00:42:08.982Z,83.09
2023-07-27T00:42:43.823Z,83.55
2023-07-27T00:43:16.056Z,83.65
2023-07-27T00:43:48.291Z,83.48
2023-07-27T00:44:23.182Z,83.60
2023-07-27T00:44:58.027Z,83.55
2023-07-27T00:45:30.388Z,83.65
2023-07-27T00:46:02.838Z,83.70
2023-07-27T00:46:35.557Z,83.94
2023-07-27T00:47:10.836Z,83.78
2023-07-27T00:47:43.217Z,83.71
2023-07-27T00:48:15.719Z,83.95
2023-07-27T00:48:48.304Z,83.90
2023-07-27T00:49:23.739Z,83.52
2023-07-27T00:49:56.032Z,84.05
2023-07-27T00:50:29.203Z,83.75
2023-07-27T00:51:02.217Z,83.82
2023-07-27T00:51:36.509Z,84.00
2023-07-27T00:52:12.422Z,83.85
2023-07-27T00:52:44.770Z,84.17
2023-07-27T00:53:18.059Z,84.07
2023-07-27T00:53:53.068Z,83.72
2023-07-27T00:54:26.282Z,83.94
2023-07-27T00:55:00.196Z,83.82
2023-07-27T00:55:33.208Z,83.76
2023-07-27T00:56:08.738Z,83.40
2023-07-27T00:56:41.377Z,83.32
2023-07-27T00:57:13.744Z,83.43
2023-07-27T00:57:46.018Z,83.09
2023-07-27T00:58:20.900Z,83.08
2023-07-27T00:58:53.200Z,83.38
2023-07-27T00:59:28.641Z,83.37
2023-07-27T01:00:00.975Z,83.21
2023-07-27T01:00:36.526Z,82.90
2023-07-27T01:01:08.999Z,83.18
2023-07-27T01:01:42.854Z,83.15
2023-07-27T01:02:17.912Z,83.01
2023-07-27T01:02:50.375Z,82.61
2023-07-27T01:03:22.777Z,82.70
2023-07-27T01:03:55.718Z,82.25
2023-07-27T01:04:30.803Z,82.66
2023-07-27T01:05:03.339Z,82.27
2023-07-27T01:05:35.961Z,82.29
2023-07-27T01:06:10.020Z,82.23
2023-07-27T01:06:45.023Z,82.31
2023-07-27T01:07:17.262Z,82.05
2023-07-27T01:07:49.489Z,82.10
2023-07-27T01:08:21.847Z,82.36
2023-07-27T01:08:57.060Z,81.91
2023-07-27T01:09:29.322Z,82.11
2023-07-27T01:10:01.612Z,81.96
2023-07-27T01:10:50.739Z,82.00
2023-07-27T01:11:32.472Z,82.09
2023-07-27T01:12:15.026Z,82.32
2023-07-27T01:12:53.618Z,82.32
2023-07-27T01:13:35.225Z,82.60
2023-07-27T01:14:15.488Z,82.33
2023-07-27T01:14:53.910Z,82.67
2023-07-27T01:15:33.911Z,82.96
2023-07-27T01:16:10.703Z,82.57
2023-07-27T01:16:49.513Z,82.58
2023-07-27T01:17:26.255Z,82.51
2023-07-27T01:18:05.442Z,83.03
2023-07-27T01:18:46.827Z,82.59
2023-07-27T01:19:38.276Z,82.70
2023-07-27T01:20:23.635Z,83.01
2023-07-27T01:21:08.510Z,82.82
2023-07-27T01:21:46.906Z,82.78
2023-07-27T01:22:41.998Z,82.60
2023-07-27T01:23:55.731Z,82.88
2023-07-27T01:24:55.694Z,83.13
2023-07-27T01:25:46.076Z,83.00
2023-07-27T01:26:37.704Z,83.51
2023-07-27T01:27:34.962Z,83.43
2023-07-27T01:28:22.641Z,83.28
2023-07-27T01:29:04.554Z,83.34
2023-07-27T01:30:09.345Z,83.25
2023-07-27T01:30:55.174Z,82.96
2023-07-27T01:31:32.578Z,83.40
2023-07-27T01:32:09.896Z,83.57
2023-07-27T01:32:44.113Z,83.46
2023-07-27T01:33:18.984Z,83.04
2023-07-27T01:33:57.777Z,83.28
2023-07-27T01:34:35.908Z,83.44
2023-07-27T01:35:13.998Z,83.57
2023-07-27T01:35:52.281Z,83.56
2023-07-27T01:36:30.982Z,83.85
2023-07-27T01:37:06.095Z,83.82
2023-07-27T01:37:41.805Z,83.91
2023-07-27T01:38:15.202Z,83.42
2023-07-27T01:38:52.482Z,83.79
2023-07-27T01:39:26.835Z,83.59
2023-07-27T01:40:02.206Z,83.69
2023-07-27T01:40:36.064Z,83.77
2023-07-27T01:41:13.261Z,83.75
2023-07-27T01:41:47.833Z,83.77
2023-07-27T01:42:21.352Z,83.96
2023-07-27T01:42:54.103Z,84.13
2023-07-27T01:43:30.409Z,84.15
2023-07-27T01:44:03.677Z,84.02
2023-07-27T01:44:37.888Z,83.77
2023-07-27T01:45:16.764Z,84.35
2023-07-27T01:45:49.995Z,84.02
2023-07-27T01:46:26.229Z,84.40
2023-07-27T01:47:03.844Z,83.97
2023-07-27T01:47:37.983Z,84.49
2023-07-27T01:48:11.991Z,84.45
2023-07-27T01:48:45.337Z,84.52
2023-07-27T01:49:21.675Z,85.03
2023-07-27T01:49:55.428Z,85.06
2023-07-27T01:50:30.310Z,85.18
2023-07-27T01:51:06.867Z,85.15
2023-07-27T01:51:41.701Z,85.28
2023-07-27T01:52:16.653Z,85.65
2023-07-27T01:52:53.783Z,85.49
2023-07-27T01:53:29.886Z,85.65
2023-07-27T01:54:03.655Z,85.79
2023-07-27T01:54:36.437Z,85.75
2023-07-27T01:55:13.330Z,85.98
2023-07-27T01:55:46.752Z,85.83
2023-07-27T01:56:21.209Z,85.81
2023-07-27T01:56:58.024Z,86.02
2023-07-27T01:57:31.687Z,85.94
2023-07-27T01:58:05.487Z,85.77
2023-07-27T01:58:39.173Z,86.12
2023-07-27T01:59:13.269Z,85.86
2023-07-27T01:59:50.022Z,86.20
2023-07-27T02:00:22.799Z,86.16
2023-07-27T02:00:56.718Z,85.94
2023-07-27T02:01:34.692Z,85.63
2023-07-27T02:02:08.017Z,85.78
2023-07-27T02:02:42.340Z,85.46
2023-07-27T02:03:15.212Z,85.46
2023-07-27T02:03:52.681Z,85.78
2023-07-27T02:04:25.244Z,85.67
2023-07-27T02:04:58.599Z,85.53
2023-07-27T02:05:31.154Z,85.58
2023-07-27T02:06:06.097Z,85.57
2023-07-27T02:06:38.303Z,85.76
2023-07-27T02:07:10.541Z,85.92
2023-07-27T02:07:46.702Z,85.63
2023-07-27T02:08:19.155Z,86.16
2023-07-27T02:08:51.405Z,85.98
2023-07-27T02:09:26.779Z,85.93
2023-07-27T02:10:01.651Z,85.85
2023-07-27T02:10:34.917Z,86.00
2023-07-27T02:11:10.818Z,86.05
2023-07-27T02:11:46.691Z,85.92
2023-07-27T02:12:29.906Z,85.76
2023-07-27T02:13:10.222Z,86.06
2023-07-27T02:13:47.431Z,85.96
2023-07-27T02:14:28.126Z,86.05
2023-07-27T02:15:08.226Z,86.04
2023-07-27T02:15:44.834Z,85.99
2023-07-27T02:16:36.256Z,86.04
2023-07-27T02:17:16.695Z,85.98
2023-07-27T02:17:51.046Z,85.93
2023-07-27T02:18:25.090Z,86.22
2023-07-27T02:18:59.864Z,85.59
2023-07-27T02:19:39.911Z,85.48
2023-07-27T02:20:15.623Z,85.31
2023-07-27T02:20:50.069Z,85.67
2023-07-27T02:21:25.690Z,85.26
2023-07-27T02:22:02.598Z,85.38
2023-07-27T02:22:39.965Z,85.24
2023-07-27T02:23:13.642Z,84.75
2023-07-27T02:23:47.051Z,84.64
2023-07-27T02:24:21.947Z,84.72
2023-07-27T02:24:54.647Z,84.59
2023-07-27T02:25:27.135Z,84.63
2023-07-27T02:25:59.789Z,84.56
2023-07-27T02:26:35.561Z,84.94
2023-07-27T02:27:08.402Z,84.67
2023-07-27T02:27:40.720Z,84.84
2023-07-27T02:28:15.909Z,84.58
2023-07-27T02:28:48.348Z,84.64
2023-07-27T02:29:21.508Z,84.96
2023-07-27T02:29:53.814Z,84.58
2023-07-27T02:30:28.844Z,84.67
2023-07-27T02:31:01.184Z,84.90
2023-07-27T02:31:36.520Z,84.86
2023-07-27T02:32:09.232Z,84.42
2023-07-27T02:32:44.073Z,84.57
2023-07-27T02:33:16.318Z,84.49
2023-07-27T02:33:48.522Z,84.01
2023-07-27T02:34:23.783Z,84.34
2023-07-27T02:34:56.534Z,83.91
2023-07-27T02:35:29.477Z,84.08
2023-07-27T02:36:02.161Z,83.59
2023-07-27T02:36:37.924Z,83.33
2023-07-27T02:37:10.399Z,83.66
2023-07-27T02:37:42.619Z,83.62
2023-07-27T02:38:17.528Z,83.52
2023-07-27T02:38:49.730Z,83.50
2023-07-27T02:39:21.980Z,83.07
2023-07-27T02:39:54.266Z,82.88
2023-07-27T02:40:29.042Z,83.29
2023-07-27T02:41:01.886Z,83.01
2023-07-27T02:41:34.297Z,82.72
2023-07-27T02:42:08.140Z,83.03
2023-07-27T02:42:43.602Z,82.98
2023-07-27T02:43:15.845Z,82.53
2023-07-27T02:43:50.846Z,82.82
2023-07-27T02:44:23.680Z,82.63
2023-07-27T02:44:58.492Z,82.75
2023-07-27T02:45:34.506Z,82.74
2023-07-27T02:46:09.672Z,82.77
2023-07-27T02:46:44.624Z,82.60
2023-07-27T02:47:19.431Z,82.63
2023-07-27T02:47:52.301Z,82.83
2023-07-27T02:48:24.826Z,83.03
2023-07-27T02:48:57.159Z,82.42
2023-07-27T02:49:31.988Z,82.79
2023-07-27T02:50:04.869Z,82.42
2023-07-27T02:50:49.999Z,82.19
2023-07-27T02:51:24.687Z,82.70
2023-07-27T02:52:01.492Z,82.89
2023-07-27T02:52:33.729Z,82.84
2023-07-27T02:53:09.493Z,82.50
2023-07-27T02:53:47.899Z,82.43
2023-07-27T02:54:26.938Z,82.35
2023-07-27T02:55:01.074Z,82.40
2023-07-27T02:55:33.397Z,82.62
2023-07-27T02:56:11.253Z,82.54
2023-07-27T02:56:51.432Z,82.84
2023-07-27T02:57:30.326Z,83.07
2023-07-27T02:58:05.572Z,82.78
2023-07-27T02:58:42.911Z,83.00
2023-07-27T02:59:15.138Z,82.72
2023-07-27T02:59:51.457Z,82.63
2023-07-27T03:00:26.530Z,82.52
2023-07-27T03:01:00.579Z,82.83
2023-07-27T03:01:33.214Z,82.90
2023-07-27T03:02:13.369Z,82.61
2023-07-27T03:02:50.353Z,82.46
2023-07-27T03:03:23.099Z,82.42
2023-07-27T03:03:57.386Z,82.91
2023-07-27T03:04:29.888Z,83.02
2023-07-27T03:05:05.895Z,82.79
2023-07-27T03:05:38.076Z,83.10
2023-07-27T03:06:10.713Z,83.25
2023-07-27T03:06:46.321Z,82.97
2023-07-27T03:07:21.373Z,82.99
2023-07-27T03:07:53.639Z,83.40
2023-07-27T03:08:28.551Z,83.55
2023-07-27T03:09:00.821Z,83.26
2023-07-27T03:09:36.593Z,83.55
2023-07-27T03:10:09.885Z,83.14
2023-07-27T03:10:42.090Z,83.62
2023-07-27T03:11:17.038Z,83.11
2023-07-27T03:11:50.574Z,83.41
2023-07-27T03:12:22.880Z,83.37
2023-07-27T03:12:58.520Z,83.24
2023-07-27T03:13:31.083Z,83.37
2023-07-27T03:14:03.291Z,83.42
2023-07-27T03:14:38.406Z,83.21
2023-07-27T03:15:11.364Z,83.75
2023-07-27T03:15:43.675Z,83.45
2023-07-27T03:16:18.689Z,83.58
2023-07-27T03:16:51.174Z,83.86
2023-07-27T03:17:26.232Z,83.67
2023-07-27T03:18:01.035Z,83.81
2023-07-27T03:18:34.879Z,83.66
2023-07-27T03:19:07.166Z,83.80
2023-07-27T03:19:40.228Z,83.58
2023-07-27T03:20:15.535Z,84.05
2023-07-27T03:20:47.788Z,83.41
2023-07-27T03:21:20.718Z,83.30
2023-07-27T03:21:53.663Z,83.59
2023-07-27T03:22:29.134Z,83.32
2023-07-27T03:23:01.586Z,83.56
2023-07-27T03:23:34.939Z,83.04
2023-07-27T03:24:08.483Z,82.99
2023-07-27T03:24:43.372Z,83.28
2023-07-27T03:25:16.033Z,82.79
2023-07-27T03:25:49.218Z,83.16
2023-07-27T03:26:21.432Z,83.13
2023-07-27T03:26:56.458Z,82.85
2023-07-27T03:27:28.714Z,82.96
2023-07-27T03:28:00.988Z,82.86
2023-07-27T03:28:33.198Z,83.05
2023-07-27T03:29:07.959Z,83.26
2023-07-27T03:29:40.159Z,83.18
2023-07-27T03:30:12.812Z,82.65
2023-07-27T03:30:45.043Z,82.70
2023-07-27T03:31:22.463Z,83.06
2023-07-27T03:31:54.757Z,83.08
2023-07-27T03:32:29.638Z,82.58
2023-07-27T03:33:02.041Z,82.89
2023-07-27T03:33:36.959Z,82.92
2023-07-27T03:34:09.227Z,82.57
2023-07-27T03:34:41.659Z,82.66
2023-07-27T03:35:13.946Z,82.88
2023-07-27T03:35:49.131Z,82.58
2023-07-27T03:36:24.734Z,82.29
2023-07-27T03:36:56.999Z,82.61
2023-07-27T03:37:29.221Z,82.12
2023-07-27T03:38:04.109Z,82.34
2023-07-27T03:38:37.095Z,82.17
2023-07-27T03:39:09.426Z,82.35
2023-07-27T03:39:44.382Z,82.61
2023-07-27T03:40:16.665Z,82.70
2023-07-27T03:40:48.869Z,82.34
2023-07-27T03:41:21.090Z,82.19
2023-07-27T03:41:55.938Z,82.30
2023-07-27T03:42:28.697Z,82.49
2023-07-27T03:43:00.928Z,81.97
2023-07-27T03:43:34.445Z,82.38
2023-07-27T03:44:09.205Z,82.03
2023-07-27T03:44:41.406Z,82.13
2023-07-27T03:45:15.695Z,82.12
2023-07-27T03:45:50.576Z,82.35
2023-07-27T03:46:22.895Z,81.96
2023-07-27T03:46:55.242Z,82.45
2023-07-27T03:47:30.149Z,82.46
2023-07-27T03:48:06.001Z,82.16
2023-07-27T03:48:38.351Z,82.34
2023-07-27T03:49:10.601Z,82.14
2023-07-27T03:49:45.522Z,81.94
2023-07-27T03:50:17.931Z,82.28
2023-07-27T03:50:52.084Z,81.80
2023-07-27T03:51:26.861Z,82.28
2023-07-27T03:51:59.098Z,81.78
2023-07-27T03:52:31.289Z,81.99
2023-07-27T03:53:03.584Z,81.81
2023-07-27T03:53:39.796Z,81.78
2023-07-27T03:54:11.997Z,81.83
2023-07-27T03:54:44.845Z,81.69
2023-07-27T03:55:19.871Z,81.90
2023-07-27T03:55:55.045Z,81.47
2023-07-27T03:56:27.780Z,81.63
2023-07-27T03:57:00.272Z,81.51
2023-07-27T03:57:33.362Z,81.61
2023-07-27T03:58:08.236Z,81.58
2023-07-27T03:58:40.874Z,81.51
2023-07-27T03:59:13.209Z,81.53
2023-07-27T03:59:45.468Z,81.79
2023-07-27T04:00:20.276Z,81.26
2023-07-27T04:00:53.252Z,81.06
2023-07-27T04:01:25.723Z,81.08
2023-07-27T04:02:01.268Z,81.41
2023-07-27T04:02:36.429Z,81.29
2023-07-27T04:03:08.768Z,80.95
2023-07-27T04:03:43.737Z,81.24
2023-07-27T04:04:16.214Z,81.36
2023-07-27T04:04:49.284Z,81.08
2023-07-27T04:05:24.279Z,81.19
2023-07-27T04:05:56.693Z,80.96
2023-07-27T04:06:29.187Z,81.07
2023-07-27T04:07:01.587Z,81.08
2023-07-27T04:07:36.765Z,81.35
2023-07-27T04:08:09.330Z,81.23
2023-07-27T04:08:41.612Z,80.90
2023-07-27T04:09:16.687Z,80.77
2023-07-27T04:09:48.987Z,81.12
2023-07-27T04:10:21.386Z,81.18
2023-07-27T04:10:53.745Z,81.24
2023-07-27T04:11:28.731Z,81.41
2023-07-27T04:12:01.114Z,81.29
2023-07-27T04:12:34.595Z,81.11
2023-07-27T04:13:07.022Z,81.34
2023-07-27T04:13:41.919Z,81.49
2023-07-27T04:14:14.256Z,81.08
2023-07-27T04:14:46.670Z,81.51
2023-07-27T04:15:19.387Z,81.55
2023-07-27T04:15:54.392Z,81.37
2023-07-27T04:16:26.793Z,81.34
2023-07-27T04:16:59.181Z,81.58
2023-07-27T04:17:31.860Z,82.04
2023-07-27T04:18:09.971Z,81.59
2023-07-27T04:18:42.689Z,82.02
2023-07-27T04:19:15.047Z,81.61
2023-07-27T04:19:47.508Z,81.79
2023-07-27T04:20:22.515Z,81.88
2023-07-27T04:20:54.890Z,81.91
2023-07-27T04:21:27.260Z,82.26
2023-07-27T04:21:59.459Z,81.92
2023-07-27T04:22:34.348Z,82.19
2023-07-27T04:23:06.625Z,82.40
2023-07-27T04:23:38.904Z,82.47
2023-07-27T04:24:13.877Z,82.66
2023-07-27T04:24:46.722Z,82.89
2023-07-27T04:25:19.410Z,82.87
2023-07-27T04:25:51.734Z,83.22
2023-07-27T04:26:26.565Z,83.17
2023-07-27T04:26:58.918Z,83.08
2023-07-27T04:27:31.138Z,83.31
2023-07-27T04:28:03.495Z,83.22
2023-07-27T04:28:38.251Z,83.03
2023-07-27T04:29:10.485Z,82.80
2023-07-27T04:29:42.804Z,82.61
2023-07-27T04:30:15.020Z,82.65
2023-07-27T04:30:49.892Z,82.51
2023-07-27T04:31:22.147Z,82.33
2023-07-27T04:31:54.398Z,81.95
2023-07-27T04:32:28.739Z,81.76
2023-07-27T04:33:05.184Z,81.70
2023-07-27T04:33:40.016Z,81.46
2023-07-27T04:34:12.180Z,81.33
2023-07-27T04:34:44.686Z,81.69
2023-07-27T04:35:19.788Z,81.63
2023-07-27T04:35:52.138Z,81.61
2023-07-27T04:36:24.355Z,81.47
2023-07-27T04:36:56.576Z,81.66
2023-07-27T04:37:31.430Z,81.62
2023-07-27T04:38:03.746Z,81.51
2023-07-27T04:38:36.097Z,80.97
2023-07-27T04:39:10.916Z,81.36
2023-07-27T04:39:43.115Z,80.96
2023-07-27T04:40:16.137Z,80.91
2023-07-27T04:40:52.584Z,81.24
2023-07-27T04:41:24.856Z,81.23
2023-07-27T04:41:57.087Z,80.73
2023-07-27T04:42:29.335Z,80.66
2023-07-27T04:43:04.146Z,80.62
2023-07-27T04:43:36.400Z,80.63
2023-07-27T04:44:08.606Z,80.64
2023-07-27T04:44:40.801Z,80.77
2023-07-27T04:45:16.015Z,80.68
2023-07-27T04:45:48.292Z,81.11
2023-07-27T04:46:20.810Z,81.06
2023-07-27T04:46:53.518Z,81.32
2023-07-27T04:47:28.388Z,81.39
2023-07-27T04:48:00.721Z,81.69
2023-07-27T04:48:33.009Z,81.55
2023-07-27T04:49:10.636Z,81.50
2023-07-27T04:49:43.872Z,81.18
2023-07-27T04:50:16.281Z,81.42
2023-07-27T04:50:48.701Z,81.92
2023-07-27T04:51:23.536Z,81.93
2023-07-27T04:51:55.767Z,81.94
2023-07-27T04:52:29.265Z,81.60
2023-07-27T04:53:01.521Z,81.63
2023-07-27T04:53:33.771Z,81.85
2023-07-27T04:54:08.623Z,81.73
2023-07-27T04:54:41.043Z,81.71
2023-07-27T04:55:13.267Z,81.54
2023-07-27T04:55:45.508Z,81.38
2023-07-27T04:56:20.251Z,81.00
2023-07-27T04:56:52.479Z,81.36
2023-07-27T04:57:24.751Z,81.27
2023-07-27T04:57:59.671Z,81.13
2023-07-27T04:58:31.917Z,81.43
2023-07-27T04:59:04.259Z,81.47
2023-07-27T04:59:36.473Z,81.53
2023-07-27T05:00:14.492Z,81.44
2023-07-27T05:00:53.450Z,81.57
2023-07-27T05:01:25.769Z,81.54
2023-07-27T05:01:58.145Z,80.97
2023-07-27T05:02:32.995Z,80.87
2023-07-27T05:03:05.310Z,80.98
2023-07-27T05:03:37.739Z,81.22
2023-07-27T05:04:12.513Z,80.92
2023-07-27T05:04:44.730Z,81.19
2023-07-27T05:05:19.648Z,80.73
2023-07-27T05:05:53.839Z,81.18
2023-07-27T05:06:26.026Z,80.69
2023-07-27T05:06:58.234Z,80.87
2023-07-27T05:07:33.037Z,80.69
2023-07-27T05:08:05.976Z,80.91
2023-07-27T05:08:38.406Z,80.46
2023-07-27T05:09:12.948Z,80.54
2023-07-27T05:09:45.499Z,80.72
2023-07-27T05:10:20.294Z,80.97
2023-07-27T05:10:52.489Z,81.05
2023-07-27T05:11:25.216Z,81.01
2023-07-27T05:11:57.428Z,80.88
2023-07-27T05:12:33.485Z,80.94
2023-07-27T05:13:05.674Z,80.61
2023-07-27T05:13:37.974Z,80.37
2023-07-27T05:14:12.873Z,80.20
2023-07-27T05:14:45.135Z,80.43
2023-07-27T05:15:18.383Z,80.58
2023-07-27T05:15:53.287Z,80.35
2023-07-27T05:16:25.586Z,80.53
2023-07-27T05:16:57.826Z,80.35
2023-07-27T05:17:30.060Z,80.26
2023-07-27T05:18:04.992Z,80.70
2023-07-27T05:18:37.177Z,80.33
2023-07-27T05:19:12.009Z,80.45
2023-07-27T05:19:46.861Z,80.56
2023-07-27T05:20:19.844Z,80.30
2023-07-27T05:20:52.047Z,80.61
2023-07-27T05:21:26.892Z,80.56
2023-07-27T05:21:59.081Z,80.42
2023-07-27T05:22:31.374Z,79.94
2023-07-27T05:23:03.645Z,80.08
2023-07-27T05:23:38.489Z,79.76
2023-07-27T05:24:11.171Z,80.29
2023-07-27T05:24:43.472Z,79.89
2023-07-27T05:25:16.213Z,80.29
2023-07-27T05:25:51.855Z,80.08
2023-07-27T05:26:24.040Z,80.14
2023-07-27T05:26:56.202Z,80.01
2023-07-27T05:27:31.050Z,80.02
2023-07-27T05:28:03.916Z,79.77
2023-07-27T05:28:36.153Z,79.69
2023-07-27T05:29:08.412Z,79.80
2023-07-27T05:29:43.666Z,79.51
2023-07-27T05:30:16.101Z,79.36
2023-07-27T05:30:48.361Z,79.61
2023-07-27T05:31:23.249Z,79.68
2023-07-27T05:31:55.605Z,79.40
2023-07-27T05:32:27.902Z,79.53
2023-07-27T05:33:00.414Z,79.72
2023-07-27T05:33:35.342Z,79.98
2023-07-27T05:34:09.265Z,79.97
2023-07-27T05:34:44.044Z,79.45
2023-07-27T05:35:19.214Z,80.00
2023-07-27T05:35:51.740Z,80.04
2023-07-27T05:36:24.189Z,80.25
2023-07-27T05:36:59.201Z,80.07
2023-07-27T05:37:31.741Z,80.53
2023-07-27T05:38:03.923Z,80.53
2023-07-27T05:38:36.110Z,80.39
2023-07-27T05:39:10.938Z,79.99
2023-07-27T05:39:43.155Z,80.25
2023-07-27T05:40:15.609Z,80.06
2023-07-27T05:40:50.454Z,79.55
2023-07-27T05:41:22.644Z,79.36
2023-07-27T05:41:54.929Z,79.53
2023-07-27T05:42:28.774Z,78.93
2023-07-27T05:43:05.414Z,79.11
2023-07-27T05:43:37.635Z,79.11
2023-07-27T05:44:09.868Z,79.18
2023-07-27T05:44:44.728Z,78.96
2023-07-27T05:45:17.117Z,79.08
2023-07-27T05:45:51.464Z,79.05
2023-07-27T05:46:23.785Z,78.73
2023-07-27T05:46:59.446Z,79.00
2023-07-27T05:47:31.746Z,78.98
2023-07-27T05:48:04.425Z,78.88
2023-07-27T05:48:36.713Z,78.33
2023-07-27T05:49:12.013Z,78.21
2023-07-27T05:49:47.541Z,78.19
2023-07-27T05:50:20.028Z,78.03
2023-07-27T05:50:55.663Z,77.98
2023-07-27T05:51:28.241Z,77.88
2023-07-27T05:52:00.481Z,77.59
2023-07-27T05:52:32.747Z,77.32
2023-07-27T05:53:08.440Z,77.77
2023-07-27T05:53:40.636Z,77.70
2023-07-27T05:54:12.904Z,77.50
2023-07-27T05:54:45.101Z,77.36
2023-07-27T05:55:20.445Z,77.31
2023-07-27T05:55:52.708Z,76.94
2023-07-27T05:56:24.887Z,77.29
2023-07-27T05:56:57.084Z,77.28
2023-07-27T05:57:31.941Z,77.01
2023-07-27T05:58:18.464Z,77.10
2023-07-27T05:58:58.629Z,76.79
2023-07-27T05:59:30.901Z,77.02
2023-07-27T06:00:06.575Z,76.69
2023-07-27T06:00:42.215Z,76.50
2023-07-27T06:01:15.818Z,76.56
2023-07-27T06:01:48.442Z,76.15
2023-07-27T06:02:20.763Z,76.02
2023-07-27T06:02:55.646Z,76.21
2023-07-27T06:03:28.333Z,75.92
2023-07-27T06:04:07.233Z,76.06
2023-07-27T06:04:43.036Z,75.83
2023-07-27T06:05:18.002Z,75.97
2023-07-27T06:05:50.264Z,75.65
2023-07-27T06:06:25.191Z,75.98
2023-07-27T06:06:57.456Z,75.66
2023-07-27T06:07:29.757Z,75.38
2023-07-27T06:08:04.854Z,75.57
2023-07-27T06:08:37.041Z,75.44
2023-07-27T06:09:10.855Z,74.85
2023-07-27T06:09:45.773Z,74.96
2023-07-27T06:10:18.398Z,74.44
2023-07-27T06:10:50.852Z,74.66
2023-07-27T06:11:23.105Z,74.60
2023-07-27T06:11:57.855Z,74.72
2023-07-27T06:12:30.080Z,74.28
2023-07-27T06:13:02.331Z,74.51
2023-07-27T06:13:35.324Z,74.40
2023-07-27T06:14:10.186Z,73.78
2023-07-27T06:14:42.744Z,73.99
2023-07-27T06:15:15.029Z,73.80
2023-07-27T06:15:48.736Z,73.23
2023-07-27T06:16:25.820Z,73.35
2023-07-27T06:16:58.219Z,73.44
2023-07-27T06:17:30.507Z,73.46
2023-07-27T06:18:06.687Z,73.22
2023-07-27T06:18:39.570Z,73.36
2023-07-27T06:19:11.802Z,73.85
2023-07-27T06:19:43.986Z,73.73
2023-07-27T06:20:21.442Z,73.46
2023-07-27T06:20:53.757Z,73.79
2023-07-27T06:21:26.039Z,73.61
2023-07-27T06:21:58.247Z,73.50
2023-07-27T06:22:33.023Z,73.42
2023-07-27T06:23:05.316Z,73.60
2023-07-27T06:23:37.539Z,73.74
2023-07-27T06:24:10.580Z,73.47
2023-07-27T06:24:45.481Z,73.62
2023-07-27T06:25:17.741Z,73.34
2023-07-27T06:25:51.141Z,73.64
2023-07-27T06:26:25.989Z,73.73
2023-07-27T06:26:58.232Z,73.89
2023-07-27T06:27:30.461Z,73.84
2023-07-27T06:28:02.655Z,73.73
2023-07-27T06:28:37.410Z,73.50
2023-07-27T06:29:09.647Z,73.71
2023-07-27T06:29:41.893Z,73.85
2023-07-27T06:30:16.612Z,73.79
2023-07-27T06:30:51.682Z,74.14
2023-07-27T06:31:23.984Z,74.20
2023-07-27T06:31:56.421Z,74.06
2023-07-27T06:32:31.445Z,73.92
2023-07-27T06:33:04.334Z,73.80
2023-07-27T06:33:36.511Z,74.08
2023-07-27T06:34:08.686Z,74.26
2023-07-27T06:34:43.488Z,73.88
2023-07-27T06:35:18.499Z,74.64
2023-07-27T06:35:50.845Z,74.41
2023-07-27T06:36:23.202Z,74.88
2023-07-27T06:36:58.073Z,74.39
2023-07-27T06:37:30.347Z,74.55
2023-07-27T06:38:02.879Z,74.45
2023-07-27T06:38:35.113Z,74.66
2023-07-27T06:39:10.293Z,74.78
2023-07-27T06:39:43.218Z,74.67
2023-07-27T06:40:15.422Z,74.75
2023-07-27T06:40:47.729Z,74.90
2023-07-27T06:41:26.578Z,74.89
2023-07-27T06:41:58.867Z,74.83
2023-07-27T06:42:36.351Z,75.39
2023-07-27T06:43:08.582Z,75.11
2023-07-27T06:43:43.490Z,75.63
2023-07-27T06:44:15.896Z,75.49
2023-07-27T06:44:48.201Z,75.46
2023-07-27T06:45:23.077Z,75.88
2023-07-27T06:45:55.793Z,75.75
2023-07-27T06:46:28.499Z,75.80
2023-07-27T06:47:00.864Z,75.54
2023-07-27T06:47:33.240Z,75.58
2023-07-27T06:48:08.581Z,75.47
2023-07-27T06:48:40.886Z,75.29
2023-07-27T06:49:13.233Z,75.04
2023-07-27T06:49:45.427Z,75.27
2023-07-27T06:50:22.916Z,75.04
2023-07-27T06:50:55.128Z,75.12
2023-07-27T06:51:27.451Z,75.20
2023-07-27T06:51:59.670Z,75.68
2023-07-27T06:52:34.505Z,75.58
2023-07-27T06:53:06.901Z,75.74
2023-07-27T06:53:39.121Z,75.61
2023-07-27T06:54:13.937Z,75.54
2023-07-27T06:54:46.211Z,75.40
2023-07-27T06:55:18.893Z,74.81
2023-07-27T06:55:53.720Z,74.47
2023-07-27T06:56:25.882Z,74.63
2023-07-27T06:56:58.071Z,74.90
2023-07-27T06:57:30.404Z,74.42
2023-07-27T06:58:05.232Z,74.40
2023-07-27T06:58:37.965Z,74.55
2023-07-27T06:59:10.324Z,74.70
2023-07-27T06:59:42.622Z,74.79
2023-07-27T07:00:19.022Z,74.77
2023-07-27T07:00:51.275Z,74.77
2023-07-27T07:01:23.502Z,75.44
2023-07-27T07:01:58.674Z,75.28
2023-07-27T07:02:33.709Z,75.55
2023-07-27T07:03:07.323Z,75.56
2023-07-27T07:03:39.618Z,75.50
2023-07-27T07:04:14.848Z,75.46
2023-07-27T07:04:47.084Z,75.24
2023-07-27T07:05:21.990Z,75.15
2023-07-27T07:05:55.310Z,75.41
2023-07-27T07:06:30.113Z,75.72
2023-07-27T07:07:02.300Z,75.55
2023-07-27T07:07:34.518Z,75.82
2023-07-27T07:08:06.834Z,76.04
2023-07-27T07:08:41.717Z,76.14
2023-07-27T07:09:14.071Z,76.11
2023-07-27T07:09:49.633Z,75.77
2023-07-27T07:10:24.822Z,76.34
2023-07-27T07:10:57.045Z,76.84
2023-07-27T07:11:29.383Z,77.02
2023-07-27T07:12:01.555Z,77.57
2023-07-27T07:12:36.318Z,77.74
2023-07-27T07:13:09.547Z,77.97
2023-07-27T07:13:41.714Z,77.61
2023-07-27T07:14:16.622Z,77.45
2023-07-27T07:14:49.026Z,77.87
2023-07-27T07:15:21.268Z,77.45
2023-07-27T07:15:56.182Z,77.58
2023-07-27T07:16:28.434Z,77.64
2023-07-27T07:17:00.748Z,77.88
2023-07-27T07:17:33.090Z,78.04
2023-07-27T07:18:07.975Z,78.44
2023-07-27T07:18:40.149Z,78.26
2023-07-27T07:19:12.462Z,78.45
2023-07-27T07:19:44.827Z,78.07
2023-07-27T07:20:19.941Z,78.28
2023-07-27T07:20:54.708Z,79.03